Hoffman, MN (56339)

5:32 PM CDT on September 02, 2015 (GMT -0500)
Hoffman MN | | Change Station
CLOSE
Current Station
Personal Weather Station
Location: Hoffman, MN
Elevation: 1240 ft
Nearby Weather Stations

Elev 1240 ft 45.83 °N, 95.78 °W | Updated 58 seconds ago

Clear
Clear
80.4 °F
Feels Like 84 °F
N
11.0
Wind Variable Wind from SE
Gusts 14.0 mph

Today
High -- | Low -- °F
--% Chance of Precip.
Yesterday
High -- | Low -- °F
Precip. -- in
6:45 AM 7:59 PM
Waning Gibbous, 76% visible
Pressure 29.83 in
Visibility 10.0 miles
Clouds Clear
Heat Index 84 °F
Dew Point 71 °F
Humidity 73%
Rainfall 0.00 in
Snow Depth Not available.
UV 3 out of 12
Pollen 10.00 out of 12
Air Quality Not available.
Flu Activity Not available.
METAR KY63 022213Z AUTO 13012G17KT 10SM CLR 27/21 A2983 RMK AO2 T02740213
Pressure 29.83 in
Visibility 10.0 miles
Clouds Clear
Heat Index 84 °F
Dew Point 71 °F
Humidity 73%
Rainfall 0.00 in
Snow Depth Not available.
UV 3 out of 12
Pollen 10.00 out of 12
Air Quality Not available.
Flu Activity Not available.
METAR KY63 022213Z AUTO 13012G17KT 10SM CLR 27/21 A2983 RMK AO2 T02740213

10-Day Weather Forecast

×

Almanac

Astronomy

Sep. 02, 2015 Rise Set
Actual Time
Civil Twilight
Nautical Twilight
Astronomical Twilight
Moon
Length of Visible Light
Length of Day
Tomorrow will be .
, % of the Moon is Illuminated

Today's Extremes

State Highs State Lows

Community

WunderPhotos

Upload Photos

1,851,828 photos uploaded!

WunderBlogs® & News

Nearby

Air Quality

  Air Quality AQ Index Pollutant
Not available.

Snow Depth

Station Depth Elevation

Earthquake Activity

City Distance Mag. Time & Date
Minimum magnitude displayed is 2.5.

Coastal Water Temperatures

Place Temperature

Stations

Nearby Weather Stations

Station Location Temp. Windchill Dew Point Humidity Wind Precip. Elev Updated Type